Time;durP1;ratioP1;P1;durP2;ratioP2;P2;SDS_P1;SDS_P2;PMS_P1;PMS_P2;Temp;Humidity;BMP_temperature;BMP_pressure;BME280_temperature;BME280_humidity;BME280_pressure;Samples;Min_cycle;Max_cycle;Signal;HPM_P1;HPM_P2
2023/03/15 08:27:33;;;;;;;;;;;;;;;;;;5017979;27;20295;-45
2023/03/15 08:33:44;;;;;;;5.82;1.70;;;;;;;;;;5079314;27;20591;-24
2023/03/15 08:40:37;;;;;;;4.53;2.20;;;;;;;;;;4992805;27;21075;-23
2023/03/15 08:46:11;;;;;;;4.32;1.30;;;;;;;;;;4682472;28;20628;-26
2023/03/15 08:49:03;;;;;;;3.70;2.05;;;;;;;;;;4898518;27;20637;-28
2023/03/15 09:32:00;;;;;;;5.63;1.77;;;;;;;;;;5006994;27;20802;-25
2023/03/15 09:51:58;;;;;;;3.30;1.40;;;;;;;19.92;38.21;98279.22;5072916;28;20682;-24
2023/03/15 09:56:30;;;;;;;4.25;1.60;;;;;;;19.78;38.49;98283.34;5025897;28;69622;-23
2023/03/15 10:09:28;;;;;;;3.13;1.27;;;;;;;19.42;41.42;98269.72;4978632;28;20628;-16
2023/03/15 10:12:07;;;;;;;2.92;1.30;;;;;;;19.41;42.10;98262.78;4995958;28;20074;-16
2023/03/15 10:15:11;;;;;;;3.83;1.30;;;;;;;19.38;42.69;98262.50;5002056;28;20069;-16
2023/03/15 10:18:26;;;;;;;4.68;1.20;;;;;;;19.32;42.94;98250.22;4999802;28;20034;-16
2023/03/15 10:21:04;;;;;;;2.28;1.52;;;;;;;19.30;43.58;98269.06;4998474;28;20551;-16
2023/03/15 10:23:45;;;;;;;3.08;1.45;;;;;;;19.29;43.57;98274.63;4998420;28;20638;-16
2023/03/15 10:26:18;;;;;;;5.13;1.13;;;;;;;19.25;43.84;98280.47;5001056;28;20132;-16
2023/03/15 11:03:18;;;;;;;24.65;8.57;;;;;;;19.35;45.47;98284.28;5066671;27;20708;-83
2023/03/15 11:23:52;;;;;;;8.77;4.07;;;;;;;3.85;100.00;98231.09;5031278;27;20776;-88
2023/03/15 11:26:37;;;;;;;6.10;3.95;;;;;;;3.79;100.00;98235.13;4827246;28;20185;-89
2023/03/15 11:29:20;;;;;;;8.30;3.92;;;;;;;3.42;100.00;98206.84;4934574;28;20125;-93
2023/03/15 11:31:53;;;;;;;5.45;3.30;;;;;;;3.40;100.00;98183.63;4969491;28;20050;-92
2023/03/15 11:35:00;;;;;;;7.22;4.28;;;;;;;3.61;100.00;98218.81;4986981;28;20089;-91
2023/03/15 11:42:18;;;;;;;7.10;3.30;;;;;;;4.30;100.00;98216.06;4991983;28;20191;-72
2023/03/15 11:44:51;;;;;;;2.80;2.55;;;;;;;6.12;100.00;98225.41;4916274;28;20159;-72
2023/03/15 11:47:51;;;;;;;3.72;2.53;;;;;;;9.18;100.00;98213.41;4870985;28;20113;-74
2023/03/15 11:50:21;;;;;;;7.77;3.27;;;;;;;7.36;83.42;98208.06;4866121;28;20494;-93
2023/03/15 11:52:52;;;;;;;6.18;3.15;;;;;;;5.33;89.71;98185.34;4943681;28;21347;-88
2023/03/15 11:55:25;;;;;;;6.57;3.03;;;;;;;4.50;99.83;98202.84;4990116;28;20054;-89
2023/03/15 11:57:56;;;;;;;3.70;2.90;;;;;;;3.82;100.00;98203.66;5004344;28;20092;-89
2023/03/15 12:00:37;;;;;;;9.23;3.40;;;;;;;3.68;100.00;98219.81;5004107;28;20567;-87
2023/03/15 12:03:37;;;;;;;3.95;2.83;;;;;;;3.49;100.00;98220.81;5002619;28;20050;-87
2023/03/15 12:06:16;;;;;;;5.97;2.92;;;;;;;3.34;100.00;98212.75;5026586;28;20066;-87
2023/03/15 12:08:52;;;;;;;2.92;2.67;;;;;;;3.20;100.00;98206.34;4988287;28;20050;-88
2023/03/15 12:11:19;;;;;;;4.45;3.00;;;;;;;3.06;100.00;98209.47;5017602;28;20045;-87
2023/03/15 12:14:01;;;;;;;5.68;3.00;;;;;;;3.03;100.00;98219.31;4987832;28;20509;-89
2023/03/15 12:16:40;;;;;;;3.20;2.45;;;;;;;3.00;100.00;98198.88;4988720;28;20042;-88
2023/03/15 12:19:17;;;;;;;5.00;3.03;;;;;;;3.27;100.00;98216.94;5003710;28;20089;-86
2023/03/15 12:21:55;;;;;;;3.90;2.92;;;;;;;3.41;100.00;98207.78;5006166;28;20046;-88
2023/03/15 12:24:29;;;;;;;2.55;2.35;;;;;;;3.43;100.00;98216.25;5005328;28;20022;-89
2023/03/15 12:27:13;;;;;;;5.45;2.90;;;;;;;3.29;100.00;98209.81;5002416;28;20050;-91
2023/03/15 12:29:43;;;;;;;6.93;2.67;;;;;;;3.15;100.00;98223.31;5006050;28;20096;-91
2023/03/15 12:32:19;;;;;;;6.68;3.10;;;;;;;3.14;100.00;98219.09;4989955;28;20080;-90
2023/03/15 12:34:51;;;;;;;6.28;3.33;;;;;;;3.02;100.00;98243.59;5006345;28;20037;-90
2023/03/15 12:37:26;;;;;;;;;;;;;;;2.96;100.00;98224.28;5005410;28;20049;-90
2023/03/15 12:40:23;;;;;;;3.35;2.35;;;;;;;2.73;100.00;98192.81;5034746;28;19914;-88
2023/03/15 12:42:51;;;;;;;4.47;2.40;;;;;;;2.78;100.00;98234.63;5025280;28;20112;-91
2023/03/15 12:45:17;;;;;;;6.88;3.00;;;;;;;2.77;100.00;98229.59;5013255;28;20045;-91
2023/03/15 12:47:50;;;;;;;3.85;2.33;;;;;;;2.66;100.00;98215.91;5010854;28;20060;-91
2023/03/15 12:50:44;;;;;;;3.90;2.33;;;;;;;2.84;100.00;98228.06;5027127;28;20045;-91
2023/03/15 12:53:28;;;;;;;3.47;2.38;;;;;;;2.83;100.00;98224.66;5012061;28;20026;-89
2023/03/15 12:56:10;;;;;;;4.97;3.00;;;;;;;2.86;100.00;98239.88;4995124;28;20026;-92
2023/03/15 12:58:40;;;;;;;4.82;3.13;;;;;;;3.03;100.00;98235.69;4977973;28;20573;-89
2023/03/15 13:01:15;;;;;;;3.55;2.35;;;;;;;2.94;100.00;98236.59;5012165;28;20029;-93
2023/03/15 13:03:42;;;;;;;6.18;2.70;;;;;;;2.78;100.00;98226.88;4987360;28;20054;-91
2023/03/15 13:06:31;;;;;;;7.22;3.33;;;;;;;3.02;100.00;98239.25;4995212;28;20529;-92
2023/03/15 13:09:54;;;;;;;3.53;2.58;;;;;;;3.13;100.00;98227.84;5010382;28;20469;-91
2023/03/15 13:12:41;;;;;;;6.95;2.47;;;;;;;3.04;100.00;98226.13;4980790;28;20042;-90
2023/03/15 13:15:27;;;;;;;2.65;2.17;;;;;;;3.20;100.00;98237.44;5012679;28;20030;-90
2023/03/15 13:18:08;;;;;;;3.33;2.38;;;;;;;3.31;100.00;98227.81;5011792;28;20370;-91
2023/03/15 13:20:56;;;;;;;2.97;2.47;;;;;;;3.51;100.00;98238.81;4997451;28;20527;-90
2023/03/15 13:23:29;;;;;;;3.38;2.92;;;;;;;3.47;100.00;98228.72;5010407;28;20069;-92
2023/03/15 13:26:38;;;;;;;5.50;2.85;;;;;;;3.66;100.00;98238.13;4996815;28;20054;-91
2023/03/15 13:29:20;;;;;;;3.95;2.72;;;;;;;3.67;100.00;98228.56;5006171;28;20088;-90
2023/03/15 13:32:14;;;;;;;2.33;2.13;;;;;;;3.71;100.00;98209.94;4995456;28;20424;-91
2023/03/15 13:34:44;;;;;;;3.20;2.65;;;;;;;3.73;100.00;98218.38;4996341;28;20034;-91
2023/03/15 13:37:17;;;;;;;2.58;2.38;;;;;;;3.97;100.00;98248.84;4979309;28;20041;-92
2023/03/15 13:40:04;;;;;;;2.85;2.33;;;;;;;3.82;100.00;98241.78;4969771;28;20401;-90
2023/03/15 13:42:31;;;;;;;2.67;2.47;;;;;;;3.57;100.00;98220.06;4992518;28;20049;-91
2023/03/15 13:45:05;;;;;;;2.67;2.22;;;;;;;3.62;100.00;98231.59;4982493;28;20048;-91
2023/03/15 13:47:33;;;;;;;2.85;2.53;;;;;;;3.66;100.00;98221.75;4999453;28;20042;-92
2023/03/15 13:50:04;;;;;;;5.22;2.90;;;;;;;3.56;100.00;98221.03;4981542;28;20046;-90
2023/03/15 13:52:31;;;;;;;3.05;2.58;;;;;;;3.49;100.00;98231.19;4980049;28;20080;-90
2023/03/15 13:54:59;;;;;;;2.75;2.35;;;;;;;3.62;100.00;98241.16;4995128;28;20088;-90
2023/03/15 13:57:25;;;;;;;3.00;2.33;;;;;;;3.63;100.00;98240.19;5001665;28;20039;-90
2023/03/15 14:00:16;;;;;;;2.92;2.38;;;;;;;3.68;100.00;98251.75;5002485;28;20049;-90
2023/03/15 14:02:42;;;;;;;4.25;2.25;;;;;;;3.71;100.00;98241.06;5012354;28;20579;-90
2023/03/15 14:05:26;;;;;;;3.92;2.38;;;;;;;3.57;100.00;98253.78;4996310;28;20490;-94
2023/03/15 14:08:03;;;;;;;2.47;2.28;;;;;;;4.91;100.00;98245.28;4978432;28;20038;-89
2023/03/15 14:10:38;;;;;;;2.70;2.20;;;;;;;5.86;100.00;98262.03;5009585;28;20049;-89
2023/03/15 14:13:25;;;;;;;2.92;2.22;;;;;;;6.74;93.67;98235.06;5011098;28;20136;-90
2023/03/15 14:16:02;;;;;;;3.03;2.50;;;;;;;7.57;88.47;98236.91;4988765;28;20592;-91
2023/03/15 14:18:39;;;;;;;3.70;3.17;;;;;;;7.68;87.24;98241.72;4991922;28;20045;-91
2023/03/15 14:21:31;;;;;;;2.40;2.20;;;;;;;7.67;79.00;98241.88;5012205;28;20058;-88
2023/03/15 14:24:05;;;;;;;2.67;2.40;;;;;;;6.83;80.33;98238.41;4998164;28;20033;-89
2023/03/15 14:26:33;;;;;;;2.92;2.30;;;;;;;6.47;85.27;98225.09;4997891;28;20543;-91
2023/03/15 14:29:17;;;;;;;2.30;2.15;;;;;;;6.34;85.99;98223.03;5003136;28;20524;-91
2023/03/15 14:31:50;;;;;;;3.50;2.50;;;;;;;6.05;86.57;98237.44;5007821;28;20101;-83
2023/03/15 14:34:45;;;;;;;3.42;2.75;;;;;;;6.01;89.85;98237.97;5016073;28;20556;-84
2023/03/15 14:37:39;;;;;;;4.47;2.58;;;;;;;6.02;86.51;98222.19;5007997;28;20031;-83
2023/03/15 14:40:21;;;;;;;4.97;2.50;;;;;;;5.49;87.38;98233.94;5008497;28;20073;-84
2023/03/15 14:42:53;;;;;;;5.47;2.30;;;;;;;6.25;86.28;98231.88;5011717;28;20053;-90
2023/03/15 14:45:21;;;;;;;4.10;2.20;;;;;;;7.28;78.13;98231.59;4988629;28;20038;-91
2023/03/15 14:47:52;;;;;;;2.88;2.20;;;;;;;8.17;74.03;98249.03;4981388;28;20068;-91
2023/03/15 14:50:21;;;;;;;2.40;2.20;;;;;;;7.42;74.08;98234.25;4981200;28;20042;-89
2023/03/15 14:52:50;;;;;;;2.60;2.40;;;;;;;7.14;76.14;98236.59;4979774;28;20048;-91
2023/03/15 14:55:33;;;;;;;4.43;2.30;;;;;;;7.58;73.98;98228.09;5012850;28;20034;-91
2023/03/15 14:58:19;;;;;;;3.00;2.35;;;;;;;7.26;73.92;98223.97;4963918;28;20038;-89
2023/03/15 15:00:54;;;;;;;3.25;2.22;;;;;;;8.54;68.99;98226.41;5010729;28;20038;-90
2023/03/15 15:03:40;;;;;;;2.72;2.50;;;;;;;9.01;65.31;98225.13;4996369;28;20042;-92
2023/03/15 15:06:11;;;;;;;3.47;2.38;;;;;;;9.93;65.02;98230.28;4979555;28;20042;-91
2023/03/15 15:08:41;;;;;;;4.75;2.33;;;;;;;9.87;62.35;98231.88;4970838;28;20088;-88
2023/03/15 15:11:08;;;;;;;2.28;2.08;;;;;;;9.95;60.65;98232.72;4994608;28;20060;-90
2023/03/15 15:13:37;;;;;;;3.65;2.17;;;;;;;10.07;61.93;98231.97;4989214;28;21066;-91
2023/03/15 15:16:04;;;;;;;2.60;2.10;;;;;;;10.23;59.23;98220.41;4986047;28;20048;-92
2023/03/15 15:18:34;;;;;;;3.05;2.00;;;;;;;10.59;57.47;98240.34;4976598;28;20366;-91
2023/03/15 15:21:12;;;;;;;2.50;1.80;;;;;;;11.02;53.69;98221.69;4981517;28;20050;-92
2023/03/15 15:23:45;;;;;;;2.00;1.80;;;;;;;10.20;55.43;98236.53;5014484;28;20034;-91
2023/03/15 15:26:21;;;;;;;2.78;1.95;;;;;;;11.49;56.34;98239.94;5004617;28;20375;-93
2023/03/15 15:28:51;;;;;;;1.92;1.70;;;;;;;10.37;54.28;98229.16;4993368;28;20030;-91
2023/03/15 15:31:21;;;;;;;3.97;2.33;;;;;;;9.57;55.94;98219.97;4998511;28;20047;-89
2023/03/15 15:33:50;;;;;;;5.00;2.22;;;;;;;9.48;60.64;98231.59;4998433;28;20038;-92
2023/03/15 15:36:46;;;;;;;3.25;2.40;;;;;;;8.61;62.11;98245.59;4996678;28;20409;-91
2023/03/15 15:39:22;;;;;;;3.58;2.20;;;;;;;8.11;66.04;98249.75;5000607;28;20112;-91
2023/03/15 15:41:49;;;;;;;2.20;1.98;;;;;;;7.34;65.28;98249.16;5013232;28;20053;-92
2023/03/15 15:44:24;;;;;;;2.75;2.40;;;;;;;6.99;69.54;98259.19;5003682;28;20046;-85
2023/03/15 15:46:51;;;;;;;2.85;2.28;;;;;;;6.67;73.79;98242.75;5020556;28;20062;-85
2023/03/15 15:49:18;;;;;;;2.95;2.65;;;;;;;7.18;71.98;98235.25;4991188;28;20030;-85
2023/03/15 15:51:50;;;;;;;2.33;2.03;;;;;;;7.18;71.48;98230.03;4991906;28;20066;-85
2023/03/15 15:54:35;;;;;;;2.90;2.50;;;;;;;7.91;70.08;98238.22;5000577;28;20034;-84
2023/03/15 15:57:01;;;;;;;3.63;2.67;;;;;;;8.39;70.27;98246.53;4966291;28;20402;-85
2023/03/15 15:59:29;;;;;;;4.53;2.95;;;;;;;7.54;70.06;98242.47;5001192;28;20030;-84
2023/03/15 16:01:56;;;;;;;4.72;2.72;;;;;;;6.77;76.71;98255.56;5001559;28;20034;-83
2023/03/15 16:04:23;;;;;;;3.03;2.60;;;;;;;6.38;81.95;98255.59;5003770;28;20050;-86
2023/03/15 16:07:02;;;;;;;5.30;2.90;;;;;;;5.98;83.11;98272.13;4993269;28;20151;-85
2023/03/15 16:09:36;;;;;;;5.50;3.80;;;;;;;5.44;90.68;98288.25;4990473;28;20109;-85
2023/03/15 16:12:13;;;;;;;1.00;0.95;;;;;;;4.64;100.00;98294.91;4986320;28;20093;-92
2023/03/15 16:14:40;;;;;;;1.38;1.20;;;;;;;4.06;100.00;98312.00;4989834;28;20508;-92
2023/03/15 16:17:26;;;;;;;0.93;0.93;;;;;;;3.57;100.00;98300.47;4982962;28;20045;-91
2023/03/15 16:19:53;;;;;;;1.38;1.02;;;;;;;3.27;100.00;98305.06;5000815;28;20116;-92
2023/03/15 16:22:22;;;;;;;2.28;1.30;;;;;;;3.12;100.00;98342.81;4990008;28;20428;-92
2023/03/15 16:24:57;;;;;;;1.45;1.05;;;;;;;2.71;100.00;98313.88;4990524;28;20042;-93
2023/03/15 16:27:26;;;;;;;1.88;1.35;;;;;;;2.44;100.00;98300.91;4998546;28;20497;-92
2023/03/15 16:29:55;;;;;;;2.35;1.30;;;;;;;2.55;100.00;98321.44;4990090;28;20034;-93
2023/03/15 16:32:24;;;;;;;1.60;1.25;;;;;;;2.36;100.00;98278.34;5020715;28;20046;-94
2023/03/15 16:34:53;;;;;;;2.75;1.25;;;;;;;2.67;100.00;98317.72;5036577;28;20042;-94
2023/03/15 16:37:24;;;;;;;1.60;1.40;;;;;;;2.89;100.00;98325.09;5019515;28;20420;-94
2023/03/15 16:39:56;;;;;;;1.25;1.15;;;;;;;2.97;100.00;98333.91;4987674;28;20048;-94
2023/03/15 16:42:24;;;;;;;3.28;1.40;;;;;;;2.84;100.00;98329.91;4988021;28;20104;-94
2023/03/15 16:44:52;;;;;;;1.90;1.55;;;;;;;2.88;100.00;98367.50;5002601;28;20038;-92
2023/03/15 16:47:18;;;;;;;5.63;5.05;;;;;;;2.53;100.00;98351.88;5019959;28;20037;-94
2023/03/15 16:49:44;;;;;;;2.80;2.58;;;;;;;2.49;100.00;98355.69;5003131;28;20041;-94
2023/03/15 16:52:14;;;;;;;4.15;3.05;;;;;;;2.73;100.00;98360.34;5019793;28;20061;-94
2023/03/15 16:54:43;;;;;;;2.65;2.08;;;;;;;2.55;100.00;98331.81;5002068;28;20508;-96
2023/03/15 16:57:17;;;;;;;4.85;2.47;;;;;;;2.64;100.00;98373.22;5003395;28;20042;-94
2023/03/15 16:59:44;;;;;;;4.40;2.30;;;;;;;2.39;100.00;98356.53;5017899;28;20073;-94
2023/03/15 17:02:18;;;;;;;5.43;4.28;;;;;;;2.49;100.00;98334.97;4989242;28;20034;-95
2023/03/15 17:04:44;;;;;;;2.58;2.30;;;;;;;2.59;100.00;98333.97;4987841;28;20042;-95
2023/03/15 17:07:13;;;;;;;4.90;3.22;;;;;;;2.67;100.00;98364.34;5004668;28;20061;-95
2023/03/15 17:09:43;;;;;;;2.60;2.10;;;;;;;2.25;100.00;98364.75;5006086;28;20053;-93
2023/03/15 17:12:23;;;;;;;4.40;2.60;;;;;;;2.04;100.00;98383.06;5017629;28;20045;-91
2023/03/15 17:15:02;;;;;;;6.45;5.43;;;;;;;2.07;100.00;98384.53;5003824;28;20033;-92
2023/03/15 17:17:30;;;;;;;4.75;4.30;;;;;;;2.21;100.00;98391.84;5001199;28;20050;-95
2023/03/15 17:19:57;;;;;;;6.45;4.45;;;;;;;2.05;100.00;98368.34;5007810;28;20042;-93
2023/03/15 17:22:24;;;;;;;5.03;2.70;;;;;;;2.13;100.00;98378.81;5005625;28;20088;-94
2023/03/15 17:24:54;;;;;;;3.38;2.25;;;;;;;2.30;100.00;98392.81;5003836;28;20092;-95
2023/03/15 17:27:38;;;;;;;3.08;2.20;;;;;;;2.39;100.00;98416.06;4988220;28;20038;-93
2023/03/15 17:30:19;;;;;;;2.72;2.40;;;;;;;2.42;100.00;98415.78;5002626;28;20061;-93
2023/03/15 17:32:47;;;;;;;3.78;2.70;;;;;;;2.39;100.00;98417.84;5002351;28;20806;-93
2023/03/15 17:35:15;;;;;;;6.10;4.03;;;;;;;2.27;100.00;98388.69;5002245;28;20042;-94
2023/03/15 17:37:43;;;;;;;13.07;7.88;;;;;;;2.36;100.00;98394.84;5002740;28;20037;-94
2023/03/15 17:40:26;;;;;;;6.70;4.50;;;;;;;2.67;100.00;98422.13;4979484;28;20054;-95
2023/03/15 17:42:54;;;;;;;3.15;2.63;;;;;;;2.67;100.00;98418.72;4981705;28;20433;-95
2023/03/15 17:45:27;;;;;;;3.10;2.58;;;;;;;2.83;100.00;98431.91;4965768;28;20039;-95
2023/03/15 17:47:55;;;;;;;4.72;2.35;;;;;;;2.60;100.00;98399.53;4982052;28;20448;-94
2023/03/15 17:50:25;;;;;;;4.65;2.90;;;;;;;2.68;100.00;98408.22;4967899;28;20043;-95
2023/03/15 17:53:14;;;;;;;3.15;2.60;;;;;;;2.77;100.00;98429.88;4964980;28;20039;-94
2023/03/15 17:55:41;;;;;;;3.17;2.30;;;;;;;2.54;100.00;98420.81;4966562;28;20034;-95
2023/03/15 17:58:20;;;;;;;2.90;2.30;;;;;;;2.66;100.00;98435.22;4967427;28;20043;-94
2023/03/15 18:00:49;;;;;;;3.30;2.42;;;;;;;2.58;100.00;98432.50;4967651;28;20047;-94
2023/03/15 18:03:16;;;;;;;2.30;2.03;;;;;;;2.46;100.00;98421.53;4968501;28;20062;-94
2023/03/15 18:05:47;;;;;;;2.05;1.75;;;;;;;2.53;100.00;98425.19;4973297;28;20035;-95
2023/03/15 18:08:19;;;;;;;4.00;2.38;;;;;;;2.41;100.00;98413.34;4960430;28;20421;-95
2023/03/15 18:10:48;;;;;;;4.78;3.00;;;;;;;2.42;100.00;98441.69;4970745;28;20066;-95
2023/03/15 18:13:22;;;;;;;7.60;3.85;;;;;;;2.43;100.00;98439.91;4971121;28;20039;-95
2023/03/15 18:15:50;;;;;;;8.98;4.35;;;;;;;2.41;100.00;98445.22;4968006;28;20038;-96
2023/03/15 18:18:20;;;;;;;7.30;3.70;;;;;;;2.43;100.00;98458.03;4973534;28;20038;-96
2023/03/15 18:20:48;;;;;;;5.53;3.30;;;;;;;2.39;100.00;98444.53;4971171;28;20039;-95
2023/03/15 18:23:16;;;;;;;11.43;5.13;;;;;;;2.22;100.00;98424.56;4970319;28;20045;-95
2023/03/15 18:25:43;;;;;;;9.95;4.68;;;;;;;2.19;100.00;98427.41;4970638;28;20044;-96
2023/03/15 18:28:10;;;;;;;6.28;3.60;;;;;;;2.19;100.00;98435.19;4968875;28;20093;-96
2023/03/15 18:30:37;;;;;;;7.60;3.60;;;;;;;2.51;100.00;98483.22;4967529;28;20042;-96
2023/03/15 18:33:04;;;;;;;3.38;2.90;;;;;;;2.42;100.00;98485.69;4968400;28;20039;-95
2023/03/15 18:35:34;;;;;;;3.35;2.42;;;;;;;2.16;100.00;98448.41;4968387;28;20113;-96
2023/03/15 18:38:02;;;;;;;4.07;2.60;;;;;;;2.29;100.00;98477.41;4965535;28;20043;-96
2023/03/15 18:40:31;;;;;;;4.20;2.40;;;;;;;2.40;100.00;98505.72;4964660;28;20073;-95
2023/03/15 18:42:57;;;;;;;3.78;2.72;;;;;;;2.35;100.00;98479.44;4963715;28;20454;-93
2023/03/15 18:45:29;;;;;;;2.80;2.42;;;;;;;2.21;100.00;98456.56;4964787;28;20078;-95
2023/03/15 18:47:55;;;;;;;3.67;2.60;;;;;;;2.23;100.00;98465.00;4964281;28;20075;-95
2023/03/15 18:50:22;;;;;;;3.25;2.53;;;;;;;2.20;100.00;98460.09;4963269;28;20061;-95
2023/03/15 18:52:50;;;;;;;3.35;2.70;;;;;;;2.22;100.00;98463.38;4981241;28;20070;-95
2023/03/15 18:55:20;;;;;;;3.15;2.70;;;;;;;2.18;100.00;98469.78;4965444;28;20394;-95
2023/03/15 18:57:48;;;;;;;3.85;2.75;;;;;;;2.27;100.00;98505.16;4965340;28;20042;-96
2023/03/15 19:00:24;;;;;;;3.72;2.67;;;;;;;1.98;100.00;98439.69;4965725;28;20042;-94
2023/03/15 19:02:58;;;;;;;3.10;2.30;;;;;;;1.92;100.00;98435.88;4965704;28;20045;-95
2023/03/15 19:05:28;;;;;;;4.43;2.63;;;;;;;1.93;100.00;98447.06;4966092;28;20038;-95
2023/03/15 19:07:54;;;;;;;3.42;2.47;;;;;;;2.24;100.00;98487.34;4966226;28;20038;-96
2023/03/15 19:10:23;;;;;;;3.85;2.40;;;;;;;2.12;100.00;98470.31;4967029;28;20043;-95
2023/03/15 19:12:51;;;;;;;3.80;2.22;;;;;;;2.14;100.00;98481.34;4967707;28;20039;-95
2023/03/15 19:15:18;;;;;;;4.47;2.40;;;;;;;2.14;100.00;98471.81;4966366;28;20043;-95
2023/03/15 19:17:48;;;;;;;6.22;2.70;;;;;;;2.03;100.00;98446.06;4961240;29;20046;-95
2023/03/15 19:20:21;;;;;;;3.72;2.72;;;;;;;2.22;100.00;98465.97;4961517;29;20039;-95
2023/03/15 19:22:50;;;;;;;4.38;2.80;;;;;;;2.31;100.00;98474.66;4961591;29;20499;-94
2023/03/15 19:25:17;;;;;;;4.68;2.90;;;;;;;2.18;100.00;98472.38;4960681;29;20036;-94
2023/03/15 19:27:43;;;;;;;5.80;3.63;;;;;;;2.18;100.00;98477.53;4961445;29;20039;-94
2023/03/15 19:30:16;;;;;;;4.75;3.92;;;;;;;2.23;100.00;98495.25;4961649;29;20039;-94
2023/03/15 19:32:46;;;;;;;6.47;4.28;;;;;;;2.02;100.00;98472.09;4947279;29;20039;-94
2023/03/15 19:35:13;;;;;;;5.95;4.53;;;;;;;1.95;100.00;98476.19;4962180;29;20035;-94
2023/03/15 19:37:41;;;;;;;8.27;4.50;;;;;;;1.95;100.00;98465.84;4944671;29;20035;-94
2023/03/15 19:40:10;;;;;;;5.80;4.65;;;;;;;1.93;100.00;98488.44;4978827;28;20051;-94
2023/03/15 19:42:37;;;;;;;5.75;4.07;;;;;;;2.01;100.00;98496.34;4948539;29;20051;-94
2023/03/15 19:45:05;;;;;;;6.55;4.95;;;;;;;1.81;100.00;98449.78;4983511;28;20063;-93
2023/03/15 19:47:31;;;;;;;9.20;6.40;;;;;;;2.01;100.00;98504.09;4950013;29;20043;-94
2023/03/15 19:49:57;;;;;;;10.77;7.07;;;;;;;1.91;100.00;98506.66;4965584;29;20051;-94
2023/03/15 19:52:26;;;;;;;12.80;8.13;;;;;;;1.81;100.00;98478.22;4966293;29;20043;-94
2023/03/15 19:54:54;;;;;;;10.40;7.15;;;;;;;1.81;100.00;98496.31;4966010;28;20043;-96
2023/03/15 19:57:20;;;;;;;12.00;7.72;;;;;;;1.92;100.00;98518.66;4950799;29;20043;-94
2023/03/15 19:59:47;;;;;;;9.85;7.07;;;;;;;1.81;100.00;98490.34;4951222;29;20047;-94
2023/03/15 20:02:13;;;;;;;10.73;7.78;;;;;;;1.85;100.00;98513.19;4966828;28;20095;-94
2023/03/15 20:04:41;;;;;;;11.40;7.68;;;;;;;1.79;100.00;98495.63;4971329;29;20050;-93
2023/03/15 20:07:09;;;;;;;8.82;6.72;;;;;;;1.79;100.00;98507.72;4957502;29;20067;-93
2023/03/15 20:09:38;;;;;;;9.90;7.75;;;;;;;1.80;100.00;98497.28;4954778;29;20039;-93
2023/03/15 20:12:07;;;;;;;12.50;7.65;;;;;;;1.73;100.00;98485.00;4969935;29;20039;-93
2023/03/15 20:14:34;;;;;;;10.07;7.07;;;;;;;1.92;100.00;98528.16;4962315;29;20043;-93
2023/03/15 20:17:02;;;;;;;9.73;7.45;;;;;;;1.70;100.00;98493.84;4950427;29;20043;-93
2023/03/15 20:19:29;;;;;;;10.63;8.00;;;;;;;1.78;100.00;98516.44;4965310;29;20031;-93
2023/03/15 20:21:56;;;;;;;11.63;8.38;;;;;;;1.59;100.00;98506.88;4995272;28;20034;-92
2023/03/15 20:24:23;;;;;;;10.32;8.00;;;;;;;1.79;100.00;98554.28;4968730;28;20066;-92
2023/03/15 20:26:51;;;;;;;11.07;7.53;;;;;;;1.81;100.00;98547.22;4967097;28;20066;-92
2023/03/15 20:29:18;;;;;;;9.45;7.25;;;;;;;1.51;100.00;98517.09;4985374;28;20123;-92
2023/03/15 20:31:44;;;;;;;9.35;6.88;;;;;;;1.65;100.00;98547.72;4984129;28;20039;-92
2023/03/15 20:34:11;;;;;;;11.63;7.13;;;;;;;1.68;100.00;98546.63;4982393;28;20047;-92
2023/03/15 20:36:37;;;;;;;12.02;7.63;;;;;;;1.49;100.00;98539.66;4980891;28;20051;-92
2023/03/15 20:39:04;;;;;;;9.82;7.47;;;;;;;1.52;100.00;98536.81;4949026;29;20086;-93
2023/03/15 20:41:32;;;;;;;10.63;6.68;;;;;;;1.60;100.00;98570.56;4963254;28;20066;-93
2023/03/15 20:43:59;;;;;;;9.07;6.63;;;;;;;1.59;100.00;98579.28;4979599;28;20087;-93
2023/03/15 20:46:25;;;;;;;12.02;6.53;;;;;;;1.37;100.00;98549.25;4963032;28;20505;-92
2023/03/15 20:48:51;;;;;;;7.75;5.55;;;;;;;1.37;100.00;98553.63;4985040;28;20356;-94
2023/03/15 20:51:18;;;;;;;7.13;4.53;;;;;;;1.43;100.00;98568.59;4997435;28;20035;-93
2023/03/15 20:53:44;;;;;;;8.10;5.15;;;;;;;1.38;100.00;98578.50;4964805;28;20058;-93
2023/03/15 20:56:10;;;;;;;5.93;4.40;;;;;;;1.48;100.00;98597.47;4982147;28;20097;-92
2023/03/15 20:58:37;;;;;;;6.70;4.18;;;;;;;1.51;100.00;98592.06;4966787;28;20409;-93
2023/03/15 21:01:09;;;;;;;7.10;4.70;;;;;;;1.58;100.00;98609.50;4966561;28;20038;-93
2023/03/15 21:03:36;;;;;;;7.32;5.30;;;;;;;1.43;100.00;98578.94;4996191;28;20039;-93
2023/03/15 21:06:04;;;;;;;8.75;5.35;;;;;;;1.49;100.00;98588.75;4961231;29;20046;-92
2023/03/15 21:08:33;;;;;;;10.25;5.93;;;;;;;1.45;100.00;98583.06;4992862;28;20087;-93
2023/03/15 21:11:18;;;;;;;8.82;5.82;;;;;;;1.38;100.00;98581.94;5004852;28;20053;-92
2023/03/15 21:14:03;;;;;;;9.57;6.35;;;;;;;1.50;100.00;98595.56;4983147;28;20500;-93
2023/03/15 21:16:34;;;;;;;9.05;6.70;;;;;;;1.48;100.00;98597.47;4982301;28;20118;-93
2023/03/15 21:19:00;;;;;;;11.32;6.75;;;;;;;1.41;100.00;98601.53;4966899;28;20066;-93
2023/03/15 21:21:27;;;;;;;12.05;7.10;;;;;;;1.40;100.00;98590.38;4983159;28;20043;-93
2023/03/15 21:23:54;;;;;;;10.55;7.00;;;;;;;1.26;100.00;98578.63;4981474;28;20031;-93
2023/03/15 21:26:21;;;;;;;11.23;8.30;;;;;;;1.47;100.00;98590.66;4979361;28;20054;-93
2023/03/15 21:28:47;;;;;;;11.48;7.72;;;;;;;1.33;100.00;98584.09;4976617;28;20035;-93
2023/03/15 21:31:14;;;;;;;12.93;7.22;;;;;;;1.48;100.00;98605.22;4988377;28;20039;-93
2023/03/15 21:33:40;;;;;;;12.73;7.88;;;;;;;1.27;100.00;98579.44;4964702;29;20050;-93
2023/03/15 21:36:07;;;;;;;12.32;7.82;;;;;;;1.16;100.00;98564.00;4980122;28;20047;-93
2023/03/15 21:38:34;;;;;;;11.70;8.10;;;;;;;1.38;100.00;98622.44;4980319;28;20042;-92
2023/03/15 21:41:05;;;;;;;11.25;7.95;;;;;;;1.40;100.00;98611.03;4978733;28;20047;-92
2023/03/15 21:43:32;;;;;;;10.57;7.95;;;;;;;1.26;100.00;98573.44;4981949;28;20039;-92
2023/03/15 21:46:10;;;;;;;10.25;7.93;;;;;;;1.47;100.00;98608.75;4980121;28;20050;-93
2023/03/15 21:48:55;;;;;;;11.25;8.15;;;;;;;1.33;100.00;98600.41;4984661;28;20050;-92
2023/03/15 21:51:34;;;;;;;11.82;8.65;;;;;;;1.42;100.00;98613.50;5000352;28;20031;-93
2023/03/15 21:54:01;;;;;;;12.00;8.45;;;;;;;1.33;100.00;98605.56;4985330;28;20042;-93
2023/03/15 21:56:27;;;;;;;13.32;8.50;;;;;;;1.33;100.00;98600.41;4981767;28;20047;-94
2023/03/15 21:58:54;;;;;;;11.95;8.07;;;;;;;1.32;100.00;98600.53;4964805;28;20039;-93
2023/03/15 22:01:23;;;;;;;10.82;7.82;;;;;;;1.38;100.00;98607.78;4964221;28;20039;-94
2023/03/15 22:03:54;;;;;;;13.15;8.18;;;;;;;1.44;100.00;98627.09;4979477;28;20035;-94
2023/03/15 22:06:21;;;;;;;8.80;7.70;;;;;;;1.36;100.00;98614.00;4980232;28;20066;-94
2023/03/15 22:08:48;;;;;;;11.82;8.10;;;;;;;1.42;100.00;98618.66;4963621;28;20043;-94
2023/03/15 22:11:33;;;;;;;10.73;7.60;;;;;;;1.44;100.00;98627.09;4995796;28;20045;-94
2023/03/15 22:14:06;;;;;;;10.43;7.68;;;;;;;1.28;100.00;98610.31;4996822;28;20022;-94
2023/03/15 22:16:33;;;;;;;14.82;8.20;;;;;;;1.39;100.00;98626.69;4967553;28;20043;-93
2023/03/15 22:19:01;;;;;;;10.70;7.95;;;;;;;1.21;100.00;98604.03;4986095;28;20043;-93
2023/03/15 22:21:31;;;;;;;10.75;8.27;;;;;;;1.33;100.00;98620.28;4984174;28;20046;-93
2023/03/15 22:23:58;;;;;;;12.93;9.57;;;;;;;1.16;100.00;98582.91;4983604;28;20042;-93
2023/03/15 22:26:27;;;;;;;15.02;9.20;;;;;;;1.27;100.00;98592.34;4966910;28;20486;-93
2023/03/15 22:28:53;;;;;;;10.95;7.43;;;;;;;1.32;100.00;98628.97;4965436;28;20098;-94
2023/03/15 22:31:19;;;;;;;9.57;7.00;;;;;;;1.37;100.00;98634.56;4966576;28;20138;-93
2023/03/15 22:33:46;;;;;;;10.07;6.90;;;;;;;1.19;100.00;98603.31;4966097;28;20039;-94
2023/03/15 22:36:15;;;;;;;11.98;7.25;;;;;;;1.23;100.00;98625.38;4965379;28;20046;-94
2023/03/15 22:38:49;;;;;;;10.93;6.72;;;;;;;1.05;100.00;98609.63;4965112;28;20101;-92
2023/03/15 22:41:18;;;;;;;9.40;6.93;;;;;;;1.06;100.00;98608.69;4964904;28;20050;-94
2023/03/15 22:43:44;;;;;;;8.95;6.57;;;;;;;1.15;100.00;98622.63;4964916;28;20039;-94
2023/03/15 22:46:11;;;;;;;9.25;6.63;;;;;;;1.26;100.00;98630.31;4965126;28;20070;-93
2023/03/15 22:48:37;;;;;;;10.20;7.03;;;;;;;1.08;100.00;98603.41;4964080;28;20074;-93